Time;durP1;ratioP1;P1;durP2;ratioP2;P2;SDS_P1;SDS_P2;PMS_P1;PMS_P2;Temp;Humidity;BMP_temperature;BMP_pressure;BME280_temperature;BME280_humidity;BME280_pressure;Samples;Min_cycle;Max_cycle;Signal;HPM_P1;HPM_P2
2022/08/07 00:01:01;;;;;;;4.32;2.70;;;;;;;25.31;53.11;100365.31;5031505;28;20522;-76
2022/08/07 00:03:27;;;;;;;3.42;2.55;;;;;;;25.22;53.44;100358.41;5031245;28;20033;-76
2022/08/07 00:05:53;;;;;;;3.03;2.83;;;;;;;25.27;53.27;100364.88;5030115;28;20029;-77
2022/08/07 00:08:21;;;;;;;2.85;2.35;;;;;;;25.24;53.73;100364.50;5025122;28;20029;-76
2022/08/07 00:10:48;;;;;;;3.05;2.72;;;;;;;25.27;53.92;100386.00;5031059;28;20040;-75
2022/08/07 00:13:14;;;;;;;4.32;2.90;;;;;;;25.18;53.84;100370.91;5046203;28;20048;-76
2022/08/07 00:15:39;;;;;;;3.88;2.80;;;;;;;25.05;53.80;100349.09;5030040;28;20426;-75
2022/08/07 00:18:05;;;;;;;2.88;2.67;;;;;;;25.06;53.90;100359.84;5031014;28;20029;-75
2022/08/07 00:20:31;;;;;;;4.78;2.72;;;;;;;25.07;54.17;100361.50;5029809;28;20029;-75
2022/08/07 00:22:56;;;;;;;2.83;2.53;;;;;;;24.99;54.35;100348.06;5031040;28;20029;-76
2022/08/07 00:25:23;;;;;;;3.72;2.50;;;;;;;25.07;54.42;100375.25;5046181;28;20499;-81
2022/08/07 00:27:49;;;;;;;4.57;3.00;;;;;;;24.96;54.64;100358.69;5030984;28;20017;-82
2022/08/07 00:30:15;;;;;;;2.78;2.58;;;;;;;24.77;54.86;100330.38;5030189;28;20025;-82
2022/08/07 00:32:40;;;;;;;2.97;2.65;;;;;;;24.81;54.97;100350.81;5030476;28;20167;-81
2022/08/07 00:35:06;;;;;;;5.88;2.90;;;;;;;24.96;55.02;100375.16;5030524;28;20026;-82
2022/08/07 00:37:31;;;;;;;3.63;2.72;;;;;;;24.85;55.00;100352.03;5030152;28;20040;-80
2022/08/07 00:39:57;;;;;;;4.93;2.92;;;;;;;24.89;55.26;100371.63;5029105;28;20044;-82
2022/08/07 00:42:23;;;;;;;5.43;2.63;;;;;;;24.88;55.33;100379.00;5030817;28;20029;-82
2022/08/07 00:44:48;;;;;;;6.55;3.10;;;;;;;24.51;55.38;100319.63;5030587;28;20056;-83
2022/08/07 00:47:14;;;;;;;5.65;2.70;;;;;;;24.73;55.48;100351.06;5029358;28;20029;-81
2022/08/07 00:49:39;;;;;;;4.15;2.83;;;;;;;24.86;55.61;100372.09;5029625;28;20021;-81
2022/08/07 00:52:06;;;;;;;4.38;2.58;;;;;;;24.68;55.40;100337.22;5030956;28;20031;-82
2022/08/07 00:54:32;;;;;;;2.30;2.10;;;;;;;24.89;55.62;100388.91;5029345;28;20127;-82
2022/08/07 00:56:57;;;;;;;2.60;2.40;;;;;;;24.87;55.66;100392.97;5030735;28;20108;-81
2022/08/07 00:59:23;;;;;;;10.05;2.60;;;;;;;24.69;55.77;100360.81;5027870;28;20029;-81
2022/08/07 01:01:49;;;;;;;4.85;2.67;;;;;;;24.76;55.78;100375.31;5030837;28;20088;-82
2022/08/07 01:04:16;;;;;;;6.45;2.45;;;;;;;24.76;55.74;100380.00;5029394;28;20045;-81
2022/08/07 01:06:43;;;;;;;2.90;2.58;;;;;;;24.30;55.79;100298.06;5031006;28;20040;-82
2022/08/07 01:09:08;;;;;;;6.85;2.60;;;;;;;24.77;55.98;100389.88;5031507;28;20051;-81
2022/08/07 01:11:34;;;;;;;8.00;2.30;;;;;;;24.42;55.87;100335.53;5029521;28;20479;-82
2022/08/07 01:14:00;;;;;;;6.03;2.05;;;;;;;24.55;56.06;100355.66;5030976;28;20543;-82
2022/08/07 01:16:27;;;;;;;3.67;2.05;;;;;;;24.71;55.99;100393.53;5046672;28;20537;-82
2022/08/07 01:18:53;;;;;;;2.72;2.00;;;;;;;24.64;55.96;100376.28;5030457;28;20088;-81
2022/08/07 01:21:22;;;;;;;3.97;2.20;;;;;;;24.41;56.28;100355.75;5029527;28;20025;-82
2022/08/07 01:23:49;;;;;;;2.47;2.10;;;;;;;24.67;55.97;100401.38;5041188;28;20108;-82
2022/08/07 01:26:16;;;;;;;2.10;1.90;;;;;;;24.73;56.00;100410.63;5028448;28;20053;-81
2022/08/07 01:28:44;;;;;;;2.30;2.10;;;;;;;24.43;55.87;100359.13;5045507;28;20056;-81
2022/08/07 01:31:10;;;;;;;3.50;1.95;;;;;;;24.55;55.98;100374.84;5029025;28;20037;-76
2022/08/07 01:33:36;;;;;;;2.85;1.88;;;;;;;24.61;55.88;100384.94;5029892;28;20037;-76
2022/08/07 01:36:02;;;;;;;4.68;1.90;;;;;;;24.15;55.84;100314.03;5030518;28;20091;-76
2022/08/07 01:38:29;;;;;;;3.78;1.95;;;;;;;24.66;56.02;100401.59;5029855;28;20099;-75
2022/08/07 01:40:57;;;;;;;4.93;1.90;;;;;;;24.65;55.91;100397.16;5029876;28;20093;-75
2022/08/07 01:43:25;;;;;;;2.17;1.80;;;;;;;24.58;55.91;100386.22;5048181;28;20036;-75
2022/08/07 01:45:51;;;;;;;3.33;1.60;;;;;;;24.62;56.07;100392.94;5032651;28;20021;-76
2022/08/07 01:48:17;;;;;;;3.33;1.55;;;;;;;24.61;55.81;100396.75;5049070;28;20033;-76
2022/08/07 01:50:46;;;;;;;1.73;1.63;;;;;;;24.59;55.99;100398.88;5032593;28;20541;-75
2022/08/07 01:53:13;;;;;;;4.05;1.65;;;;;;;24.46;56.06;100388.00;5033912;28;20052;-75
2022/08/07 01:55:45;;;;;;;1.70;1.60;;;;;;;24.56;56.19;100403.97;5033841;28;20104;-81
2022/08/07 01:58:13;;;;;;;1.98;1.88;;;;;;;24.37;55.98;100381.94;5033788;28;20035;-82
2022/08/07 02:00:40;;;;;;;2.35;1.80;;;;;;;24.44;56.10;100398.38;5049091;28;20108;-76
2022/08/07 02:03:14;;;;;;;4.82;1.70;;;;;;;24.36;56.13;100391.25;5028732;28;20049;-75
2022/08/07 02:05:48;;;;;;;2.50;1.30;;;;;;;24.41;56.09;100396.06;5033730;28;20029;-74
2022/08/07 02:08:16;;;;;;;2.20;2.00;;;;;;;24.30;56.15;100385.78;5028080;28;20031;-75
2022/08/07 02:10:43;;;;;;;1.70;1.60;;;;;;;24.32;56.21;100384.50;5032507;28;20021;-75
2022/08/07 02:13:11;;;;;;;2.20;1.92;;;;;;;24.44;56.34;100412.91;5032168;28;20025;-75
2022/08/07 02:15:38;;;;;;;1.67;1.58;;;;;;;24.27;56.40;100388.97;5033295;28;20033;-75
2022/08/07 02:18:09;;;;;;;3.95;1.85;;;;;;;24.39;56.36;100418.22;5033448;28;20045;-75
2022/08/07 02:20:34;;;;;;;3.00;1.80;;;;;;;24.29;56.27;100397.84;5023736;28;20017;-75
2022/08/07 02:23:03;;;;;;;2.80;1.40;;;;;;;24.31;56.34;100410.25;5031763;28;20490;-76
2022/08/07 02:25:31;;;;;;;2.10;1.55;;;;;;;24.23;56.29;100391.34;5031578;28;20061;-75
2022/08/07 02:28:00;;;;;;;2.58;1.52;;;;;;;24.23;56.71;100398.72;5033258;28;20467;-76
2022/08/07 02:30:27;;;;;;;5.57;1.70;;;;;;;24.06;56.62;100378.38;5033387;28;20025;-74
2022/08/07 02:32:55;;;;;;;6.47;1.63;;;;;;;24.09;56.95;100388.91;5027025;28;20556;-75
2022/08/07 02:35:22;;;;;;;2.50;1.45;;;;;;;23.97;56.97;100377.81;5032848;28;20029;-76
2022/08/07 02:37:48;;;;;;;1.88;1.50;;;;;;;23.99;56.92;100378.41;5033027;28;20033;-75
2022/08/07 02:40:14;;;;;;;1.80;1.60;;;;;;;24.01;57.02;100378.19;5033035;28;20064;-75
2022/08/07 02:42:40;;;;;;;2.35;1.40;;;;;;;23.80;57.00;100346.44;5031413;28;20509;-75
2022/08/07 02:45:10;;;;;;;4.60;1.65;;;;;;;24.03;57.06;100392.53;5031321;28;20033;-75
2022/08/07 02:47:36;;;;;;;2.08;1.42;;;;;;;23.72;57.00;100335.75;5032756;28;20041;-76
2022/08/07 02:50:01;;;;;;;2.35;1.30;;;;;;;24.09;57.34;100400.69;5032589;28;20029;-75
2022/08/07 02:52:40;;;;;;;1.67;1.58;;;;;;;24.05;57.40;100396.72;5031388;28;20037;-75
2022/08/07 02:55:12;;;;;;;4.15;1.55;;;;;;;23.90;57.52;100374.19;5027696;28;20044;-76
2022/08/07 02:57:39;;;;;;;2.42;1.45;;;;;;;23.91;57.53;100384.13;5032499;28;20025;-76
2022/08/07 03:00:05;;;;;;;2.40;1.40;;;;;;;23.78;57.76;100364.16;5027788;28;20037;-76
2022/08/07 03:02:34;;;;;;;2.15;1.35;;;;;;;23.97;57.82;100401.59;5031143;28;20403;-76
2022/08/07 03:05:02;;;;;;;5.25;1.50;;;;;;;23.65;57.91;100358.75;5030273;28;20383;-76
2022/08/07 03:07:29;;;;;;;1.52;1.42;;;;;;;23.91;57.88;100400.56;5032396;28;20091;-76
2022/08/07 03:09:55;;;;;;;5.40;1.58;;;;;;;23.61;57.85;100363.00;5027867;28;20052;-76
2022/08/07 03:12:21;;;;;;;1.50;1.40;;;;;;;23.68;58.24;100378.34;5030827;28;20554;-76
2022/08/07 03:14:47;;;;;;;2.03;1.45;;;;;;;23.70;58.52;100397.28;5032450;28;20483;-76
2022/08/07 03:17:12;;;;;;;3.15;1.40;;;;;;;23.82;58.44;100431.16;5031235;28;20075;-76
2022/08/07 03:19:39;;;;;;;1.00;1.00;;;;;;;23.71;58.95;100416.25;5030857;28;20029;-76
2022/08/07 03:22:06;;;;;;;4.22;1.55;;;;;;;23.67;58.84;100408.69;5026478;28;20030;-75
2022/08/07 03:24:33;;;;;;;1.55;1.42;;;;;;;23.74;58.90;100421.31;5024038;28;20040;-76
2022/08/07 03:27:00;;;;;;;3.67;1.70;;;;;;;23.58;59.06;100399.88;5024876;28;20061;-77
2022/08/07 03:29:49;;;;;;;2.88;1.75;;;;;;;23.52;59.17;100403.47;5027214;28;20052;-76
2022/08/07 03:32:17;;;;;;;1.45;1.35;;;;;;;23.55;59.44;100426.84;5032340;28;20046;-76
2022/08/07 03:34:47;;;;;;;1.27;1.17;;;;;;;23.67;59.63;100442.38;5018803;28;21649;-75
2022/08/07 03:37:15;;;;;;;4.50;1.08;;;;;;;23.55;59.52;100426.84;5025422;28;20018;-76
2022/08/07 03:39:41;;;;;;;2.95;1.20;;;;;;;23.59;59.74;100456.31;5016782;28;20579;-76
2022/08/07 03:42:07;;;;;;;4.75;1.20;;;;;;;23.59;59.94;100450.00;5016558;28;20033;-76
2022/08/07 03:44:34;;;;;;;5.35;1.48;;;;;;;23.45;60.00;100430.03;5023293;28;20064;-75
2022/08/07 03:47:00;;;;;;;5.63;1.10;;;;;;;23.34;60.05;100419.72;5019842;28;20086;-76
2022/08/07 03:49:27;;;;;;;2.85;1.45;;;;;;;23.46;60.06;100444.56;5023516;28;20030;-76
2022/08/07 03:51:55;;;;;;;3.22;1.10;;;;;;;23.24;60.03;100399.31;5015620;28;20080;-76
2022/08/07 03:54:21;;;;;;;0.80;0.80;;;;;;;23.49;60.16;100446.88;5024441;28;20049;-76
2022/08/07 03:56:48;;;;;;;1.52;1.02;;;;;;;23.11;60.33;100391.97;5024596;28;20499;-76
2022/08/07 03:59:14;;;;;;;2.33;1.45;;;;;;;23.37;60.19;100429.41;5020372;28;20093;-76
2022/08/07 04:01:41;;;;;;;2.13;1.08;;;;;;;23.18;60.47;100408.38;5028100;28;20083;-76
2022/08/07 04:04:08;;;;;;;3.25;1.10;;;;;;;23.15;60.70;100406.06;5015069;28;20041;-76
2022/08/07 04:06:36;;;;;;;2.50;1.08;;;;;;;23.29;60.75;100432.38;5019239;28;20025;-76
2022/08/07 04:09:02;;;;;;;2.95;1.42;;;;;;;23.38;61.07;100459.31;5021930;28;20030;-76
2022/08/07 04:11:28;;;;;;;3.75;1.60;;;;;;;23.19;60.97;100427.34;5014785;28;20465;-76
2022/08/07 04:13:55;;;;;;;2.88;1.20;;;;;;;23.08;60.95;100408.81;5018706;28;20041;-75
2022/08/07 04:16:22;;;;;;;2.35;1.10;;;;;;;23.23;60.91;100449.66;5023678;28;20049;-76
2022/08/07 04:18:48;;;;;;;1.33;1.20;;;;;;;23.02;60.76;100406.09;5017869;28;20040;-76
2022/08/07 04:21:14;;;;;;;1.85;1.02;;;;;;;23.14;60.67;100434.47;5034433;28;20040;-76
2022/08/07 04:23:40;;;;;;;3.83;0.93;;;;;;;23.32;60.53;100467.53;5022691;28;20044;-76
2022/08/07 04:26:06;;;;;;;1.85;0.95;;;;;;;23.03;60.19;100421.44;5016500;28;20522;-75
2022/08/07 04:28:32;;;;;;;3.42;1.02;;;;;;;23.30;60.09;100465.03;5016481;28;20034;-76
2022/08/07 04:30:59;;;;;;;4.63;1.20;;;;;;;23.13;59.65;100438.28;5019000;28;20040;-76
2022/08/07 04:33:25;;;;;;;1.45;1.35;;;;;;;23.27;59.61;100462.72;5015401;28;20038;-76
2022/08/07 04:35:52;;;;;;;3.33;1.10;;;;;;;23.31;59.56;100463.13;5013052;28;20488;-76
2022/08/07 04:38:18;;;;;;;5.63;1.00;;;;;;;23.39;59.84;100474.69;5016728;28;20038;-76
2022/08/07 04:40:44;;;;;;;5.68;1.10;;;;;;;;;;5013390;28;20033;-76
2022/08/07 04:43:11;;;;;;;9.88;1.55;;;;;;;23.49;59.13;100482.47;5015609;28;20030;-76
2022/08/07 04:45:36;;;;;;;4.22;1.10;;;;;;;23.55;58.69;100476.97;5023450;28;20057;-76
2022/08/07 04:48:17;;;;;;;1.67;1.25;;;;;;;23.62;58.90;100477.81;5029074;28;20115;-76
2022/08/07 04:51:06;;;;;;;1.73;0.82;;;;;;;23.68;58.07;100482.44;5029420;28;20041;-75
2022/08/07 04:53:53;;;;;;;2.30;1.00;;;;;;;23.76;57.51;100484.91;5029317;28;20040;-76
2022/08/07 04:56:43;;;;;;;3.28;0.80;;;;;;;23.84;57.46;100484.69;5029402;28;20495;-76
2022/08/07 04:59:17;;;;;;;2.75;1.05;;;;;;;23.76;57.08;100456.69;5023034;28;20037;-75
2022/08/07 05:02:02;;;;;;;1.08;0.80;;;;;;;24.00;56.54;100488.88;5022011;28;20043;-76
2022/08/07 05:04:41;;;;;;;1.33;0.88;;;;;;;24.16;56.27;100502.94;5026483;28;20033;-75
2022/08/07 05:07:15;;;;;;;3.88;1.10;;;;;;;24.19;56.01;100498.91;5006819;28;20052;-76
2022/08/07 05:10:07;;;;;;;2.63;1.30;;;;;;;24.19;56.08;100490.69;5013137;28;20033;-76
2022/08/07 05:12:54;;;;;;;1.10;1.00;;;;;;;24.35;55.59;100503.88;5011583;28;20054;-76
2022/08/07 05:15:34;;;;;;;2.15;1.20;;;;;;;24.33;55.31;100497.78;5010101;28;20535;-76
2022/08/07 05:18:17;;;;;;;0.80;0.80;;;;;;;24.44;55.42;100514.38;5011435;28;20076;-75
2022/08/07 05:20:46;;;;;;;3.45;1.35;;;;;;;24.30;54.86;100490.84;5028210;28;20079;-75
2022/08/07 05:23:21;;;;;;;3.95;1.00;;;;;;;24.38;55.17;100501.53;5029013;28;20053;-75
2022/08/07 05:25:48;;;;;;;1.90;0.80;;;;;;;24.19;55.39;100488.75;5046227;28;20052;-80
2022/08/07 05:28:15;;;;;;;2.70;1.17;;;;;;;24.19;55.48;100491.50;5029020;28;20034;-80
2022/08/07 05:30:43;;;;;;;3.80;1.38;;;;;;;24.25;55.71;100512.56;5029405;28;20112;-74
2022/08/07 05:33:11;;;;;;;1.45;1.25;;;;;;;24.30;56.04;100518.25;5030136;28;20040;-73
2022/08/07 05:35:37;;;;;;;1.45;1.35;;;;;;;24.26;56.63;100527.97;5029994;28;20057;-75
2022/08/07 05:38:05;;;;;;;1.80;1.33;;;;;;;24.28;56.63;100517.63;5029720;28;20514;-72
2022/08/07 05:40:32;;;;;;;5.05;1.48;;;;;;;24.16;56.99;100508.41;5029314;28;20388;-72
2022/08/07 05:42:59;;;;;;;5.32;1.60;;;;;;;24.24;57.43;100524.59;5028843;28;20108;-72
2022/08/07 05:45:26;;;;;;;4.10;1.77;;;;;;;24.06;57.54;100507.19;5029322;28;20037;-72
2022/08/07 05:47:53;;;;;;;5.97;1.55;;;;;;;23.91;57.03;100477.28;5028929;28;20058;-74
2022/08/07 05:50:20;;;;;;;3.45;1.70;;;;;;;23.89;57.04;100479.38;5021691;28;20021;-72
2022/08/07 05:52:46;;;;;;;5.95;1.50;;;;;;;24.14;56.75;100523.38;5027426;28;20041;-72
2022/08/07 05:55:11;;;;;;;5.53;1.70;;;;;;;23.98;56.39;100504.69;5028419;28;20451;-69
2022/08/07 05:57:38;;;;;;;4.97;1.40;;;;;;;24.02;56.35;100505.94;5028050;28;20099;-72
2022/08/07 06:00:06;;;;;;;3.88;1.50;;;;;;;24.09;56.75;100525.94;5025156;28;20032;-72
2022/08/07 06:02:34;;;;;;;6.47;1.92;;;;;;;24.09;56.52;100520.47;5040357;28;20035;-72
2022/08/07 06:05:09;;;;;;;7.07;1.40;;;;;;;24.09;56.23;100520.47;5029102;28;20514;-72
2022/08/07 06:07:35;;;;;;;4.88;1.40;;;;;;;24.11;56.26;100521.06;5028680;28;20030;-72
2022/08/07 06:10:01;;;;;;;1.98;1.35;;;;;;;24.09;55.97;100514.97;5028570;28;20437;-72
2022/08/07 06:12:28;;;;;;;4.60;1.45;;;;;;;24.01;56.08;100504.25;5028172;28;20029;-72
2022/08/07 06:14:54;;;;;;;2.58;1.50;;;;;;;24.12;55.86;100536.47;5027506;28;20061;-72
2022/08/07 06:17:20;;;;;;;1.95;1.42;;;;;;;24.04;56.13;100521.09;5027157;28;20033;-72
2022/08/07 06:19:47;;;;;;;3.75;1.42;;;;;;;24.14;55.82;100542.56;5040399;28;20459;-72
2022/08/07 06:22:14;;;;;;;3.15;1.20;;;;;;;24.15;55.69;100533.31;5020947;28;20029;-71
2022/08/07 06:24:40;;;;;;;5.97;1.92;;;;;;;24.17;55.75;100547.63;5026256;28;20021;-71
2022/08/07 06:27:05;;;;;;;7.80;1.55;;;;;;;24.06;55.88;100518.16;5024213;28;20176;-72
2022/08/07 06:29:32;;;;;;;3.22;1.48;;;;;;;24.14;55.91;100528.84;5029968;28;20387;-71
2022/08/07 06:31:59;;;;;;;4.80;1.70;;;;;;;24.25;56.06;100539.16;5029444;28;20037;-71
2022/08/07 06:34:25;;;;;;;5.35;1.52;;;;;;;24.28;55.75;100549.69;5027857;28;20061;-71
2022/08/07 06:36:52;;;;;;;6.63;1.50;;;;;;;24.24;55.60;100529.22;5029866;28;20045;-72
2022/08/07 06:39:17;;;;;;;5.75;1.50;;;;;;;24.21;56.19;100536.00;5028694;28;20029;-72
2022/08/07 06:41:47;;;;;;;9.48;1.60;;;;;;;24.23;56.35;100544.00;5028627;28;20505;-73
2022/08/07 06:44:14;;;;;;;4.25;1.63;;;;;;;24.27;56.70;100543.38;5045468;28;20029;-73
2022/08/07 06:46:40;;;;;;;1.77;1.40;;;;;;;24.36;56.46;100546.69;5029600;28;20037;-72
2022/08/07 06:49:06;;;;;;;5.43;1.50;;;;;;;24.36;56.39;100547.53;5027265;28;20167;-72
2022/08/07 06:51:35;;;;;;;7.13;1.63;;;;;;;24.42;56.83;100554.91;5030175;28;20041;-72
2022/08/07 06:54:03;;;;;;;11.77;1.88;;;;;;;24.35;56.77;100534.88;5028321;28;20095;-71
2022/08/07 06:56:39;;;;;;;6.25;2.08;;;;;;;24.44;56.52;100544.53;5029800;28;20087;-71
2022/08/07 06:59:13;;;;;;;4.47;1.60;;;;;;;24.51;55.93;100539.03;5044461;28;20041;-71
2022/08/07 07:01:41;;;;;;;3.47;1.52;;;;;;;24.73;55.10;100554.09;5030289;28;20045;-72
2022/08/07 07:04:07;;;;;;;6.03;1.70;;;;;;;24.80;54.75;100538.47;5028059;28;20033;-72
2022/08/07 07:06:33;;;;;;;3.05;1.45;;;;;;;25.04;54.43;100567.00;5028550;28;20041;-71
2022/08/07 07:09:24;;;;;;;4.65;1.40;;;;;;;25.23;52.56;100563.25;5029428;28;20573;-71
2022/08/07 07:12:00;;;;;;;6.88;1.50;;;;;;;25.37;51.30;100562.13;5029079;28;20052;-72
2022/08/07 07:14:27;;;;;;;6.65;1.30;;;;;;;25.44;50.54;100557.41;5029893;28;20022;-72
2022/08/07 07:16:58;;;;;;;7.68;1.60;;;;;;;25.51;50.12;100541.72;5027960;28;20029;-71
2022/08/07 07:19:32;;;;;;;4.72;1.38;;;;;;;25.67;49.67;100543.88;5029084;28;20038;-71
2022/08/07 07:21:59;;;;;;;7.55;1.17;;;;;;;25.79;49.40;100545.63;5029071;28;20059;-71
2022/08/07 07:24:25;;;;;;;11.73;1.77;;;;;;;25.90;49.34;100552.31;5021255;28;20037;-72
2022/08/07 07:26:53;;;;;;;2.28;1.67;;;;;;;25.83;49.50;100535.03;5026789;28;20045;-71
2022/08/07 07:29:23;;;;;;;7.28;1.58;;;;;;;25.97;50.21;100548.44;5028622;28;20041;-71
2022/08/07 07:31:54;;;;;;;3.40;1.30;;;;;;;26.06;50.37;100554.47;5029503;28;20040;-71
2022/08/07 07:34:25;;;;;;;11.48;1.40;;;;;;;26.06;50.91;100551.72;5022549;28;20053;-71
2022/08/07 07:36:52;;;;;;;13.70;2.58;;;;;;;25.87;50.71;100548.09;5023537;28;20116;-71
2022/08/07 07:39:21;;;;;;;8.50;1.58;;;;;;;25.83;51.08;100555.09;5028531;28;20104;-71
2022/08/07 07:41:49;;;;;;;4.72;1.40;;;;;;;25.74;51.64;100569.38;5028965;28;20025;-71
2022/08/07 07:44:20;;;;;;;5.05;1.60;;;;;;;25.63;52.11;100553.66;5028744;28;20037;-71
2022/08/07 07:46:48;;;;;;;5.45;1.70;;;;;;;25.68;53.39;100565.63;5027995;28;20475;-71
2022/08/07 07:49:16;;;;;;;2.83;1.50;;;;;;;25.73;54.07;100575.94;5026971;28;20897;-71
2022/08/07 07:51:43;;;;;;;14.25;1.80;;;;;;;25.66;52.72;100584.25;5029195;28;20073;-71
2022/08/07 07:54:10;;;;;;;6.45;1.45;;;;;;;25.54;52.43;100580.53;5028059;28;20033;-71
2022/08/07 07:56:37;;;;;;;5.03;1.50;;;;;;;25.46;52.23;100575.34;5029244;28;20643;-71
2022/08/07 07:59:04;;;;;;;10.45;1.70;;;;;;;25.19;52.33;100562.03;5027786;28;20040;-71
2022/08/07 08:01:31;;;;;;;5.85;1.50;;;;;;;25.12;52.07;100575.78;5027731;28;20483;-74
2022/08/07 08:04:02;;;;;;;7.35;1.48;;;;;;;24.95;51.90;100580.16;5028099;28;20049;-73
2022/08/07 08:06:30;;;;;;;3.63;1.50;;;;;;;24.67;52.82;100581.59;5029174;28;20021;-74
2022/08/07 08:08:59;;;;;;;4.05;1.20;;;;;;;24.64;53.13;100593.84;5028946;28;20060;-74
2022/08/07 08:11:25;;;;;;;4.95;1.10;;;;;;;24.50;53.37;100594.09;5029684;28;20108;-73
2022/08/07 08:13:50;;;;;;;3.42;1.25;;;;;;;24.31;54.30;100584.88;5029098;28;20121;-73
2022/08/07 08:16:19;;;;;;;2.22;1.30;;;;;;;24.27;54.46;100579.00;5027922;28;20034;-74
2022/08/07 08:18:46;;;;;;;4.00;1.10;;;;;;;24.22;54.76;100600.72;5025851;28;20022;-73
2022/08/07 08:29:35;;;;;;;6.18;1.33;;;;;;;23.93;56.05;100601.19;5028510;28;20024;-72
2022/08/07 08:32:03;;;;;;;3.75;1.35;;;;;;;23.93;56.23;100601.19;5022693;28;20061;-71
2022/08/07 08:34:31;;;;;;;4.75;1.40;;;;;;;23.96;56.62;100608.19;5027905;28;20490;-71
2022/08/07 08:36:58;;;;;;;2.13;1.02;;;;;;;23.85;56.84;100606.91;5027569;28;20068;-71
2022/08/07 08:39:26;;;;;;;2.45;1.55;;;;;;;23.72;57.20;100604.19;5028697;28;20112;-71
2022/08/07 08:42:18;;;;;;;1.75;1.00;;;;;;;23.77;57.34;100626.31;5019751;28;20052;-71
2022/08/07 08:45:18;;;;;;;1.98;0.90;;;;;;;23.82;57.58;100618.31;5027646;28;20084;-71
2022/08/07 08:47:54;;;;;;;4.32;1.63;;;;;;;23.89;57.72;100615.56;5023700;28;20026;-71
2022/08/07 08:50:29;;;;;;;4.53;1.40;;;;;;;23.93;57.75;100625.84;5027704;28;20108;-71
2022/08/07 08:53:24;;;;;;;2.53;1.15;;;;;;;24.01;57.39;100616.59;5023560;28;20045;-71
2022/08/07 08:56:01;;;;;;;3.80;1.30;;;;;;;24.08;56.82;100621.03;5027533;28;20048;-72
2022/08/07 08:58:46;;;;;;;3.25;1.33;;;;;;;24.15;57.15;100613.63;5028239;28;20037;-72
2022/08/07 09:01:22;;;;;;;1.83;1.50;;;;;;;24.18;56.79;100607.72;5022530;28;20140;-72
2022/08/07 09:03:59;;;;;;;5.97;1.58;;;;;;;24.35;56.64;100605.34;5025238;28;20282;-75
2022/08/07 09:06:39;;;;;;;4.07;1.67;;;;;;;24.50;55.92;100616.03;5028315;28;20025;-75
2022/08/07 09:09:23;;;;;;;6.45;1.90;;;;;;;24.47;56.08;100611.00;5022380;28;20056;-74
2022/08/07 09:11:55;;;;;;;;;;;;;;;24.48;56.42;100609.94;5026845;28;20072;-76
2022/08/07 09:14:32;;;;;;;4.85;1.73;;;;;;;24.53;55.46;100607.38;5028028;28;19913;-76
2022/08/07 09:17:28;;;;;;;1.88;1.23;;;;;;;24.50;55.64;100596.84;5027982;28;20048;-76
2022/08/07 09:20:29;;;;;;;3.30;1.40;;;;;;;24.66;55.61;100607.34;5036472;28;20025;-76
2022/08/07 09:23:20;;;;;;;11.43;2.30;;;;;;;24.69;55.35;100595.94;5028194;28;20144;-76
2022/08/07 09:25:53;;;;;;;3.10;1.20;;;;;;;24.78;55.67;100605.59;5024211;28;20414;-76
2022/08/07 09:28:28;;;;;;;2.15;1.33;;;;;;;24.80;54.94;100598.84;5030012;28;20077;-76
2022/08/07 09:31:13;;;;;;;5.30;1.45;;;;;;;24.89;54.89;100600.22;5030096;28;20510;-76
2022/08/07 09:33:57;;;;;;;4.72;1.50;;;;;;;24.96;55.19;100595.56;5030138;28;20506;-76
2022/08/07 09:36:38;;;;;;;3.03;1.42;;;;;;;25.00;54.93;100577.59;5029923;28;20044;-74
2022/08/07 09:39:19;;;;;;;3.58;1.50;;;;;;;25.26;54.69;100584.78;5028656;28;20057;-75
2022/08/07 09:42:10;;;;;;;2.88;1.48;;;;;;;25.45;54.18;100587.41;5041372;28;20033;-75
2022/08/07 09:44:48;;;;;;;4.70;1.40;;;;;;;25.59;52.99;100586.22;5025142;28;20025;-75
2022/08/07 09:47:49;;;;;;;2.25;1.20;;;;;;;25.74;52.36;100578.47;5028663;28;20068;-75
2022/08/07 09:50:38;;;;;;;5.95;1.67;;;;;;;25.82;51.73;100580.91;5008991;28;20065;-75
2022/08/07 09:53:07;;;;;;;4.35;1.13;;;;;;;25.94;51.53;100578.25;5024855;28;20441;-75
2022/08/07 09:55:54;;;;;;;3.17;1.60;;;;;;;25.91;51.54;100554.81;5025206;28;20168;-76
2022/08/07 09:58:48;;;;;;;2.65;1.60;;;;;;;26.05;51.22;100566.56;5029844;28;20037;-75
2022/08/07 10:01:35;;;;;;;3.15;1.50;;;;;;;26.16;50.49;100561.13;5023805;28;20037;-75
2022/08/07 10:04:01;;;;;;;5.03;1.20;;;;;;;26.19;49.99;100548.81;5031802;28;20537;-76
2022/08/07 10:06:38;;;;;;;2.17;1.30;;;;;;;26.21;50.09;100546.66;5032551;28;20021;-75
2022/08/07 10:09:12;;;;;;;3.90;1.33;;;;;;;26.28;50.34;100537.25;5033678;28;20476;-75
2022/08/07 10:12:04;;;;;;;8.73;1.70;;;;;;;26.26;49.30;100547.66;5032922;28;20041;-75
2022/08/07 10:14:32;;;;;;;6.57;1.23;;;;;;;26.32;48.99;100546.75;5029490;28;20079;-75
2022/08/07 10:17:05;;;;;;;5.75;1.63;;;;;;;26.28;48.82;100544.69;5032817;28;20033;-76
2022/08/07 10:19:40;;;;;;;9.63;1.85;;;;;;;26.28;48.98;100542.75;5032909;28;20041;-75
2022/08/07 10:22:24;;;;;;;3.35;1.63;;;;;;;26.29;48.56;100538.09;5028152;28;20040;-75
2022/08/07 10:25:08;;;;;;;9.73;1.60;;;;;;;26.28;48.61;100537.25;5031615;28;20083;-75
2022/08/07 10:28:15;;;;;;;5.90;1.40;;;;;;;26.36;48.62;100534.22;5024955;28;20677;-75
2022/08/07 10:31:09;;;;;;;4.03;1.50;;;;;;;26.35;48.33;100516.00;5034352;28;20434;-75
2022/08/07 10:33:48;;;;;;;4.07;1.60;;;;;;;26.47;47.87;100518.81;5030623;28;20477;-75
2022/08/07 10:36:19;;;;;;;7.05;1.77;;;;;;;26.62;47.58;100524.78;5033937;28;20487;-75
2022/08/07 10:38:49;;;;;;;8.32;1.80;;;;;;;26.71;47.05;100522.53;5033660;28;20026;-75
2022/08/07 10:41:37;;;;;;;8.45;1.80;;;;;;;26.79;47.12;100523.03;5034503;28;20475;-75
2022/08/07 10:44:20;;;;;;;9.68;1.95;;;;;;;26.82;45.99;100517.06;5029412;28;20040;-75
2022/08/07 10:47:30;;;;;;;3.00;1.33;;;;;;;27.03;46.38;100516.53;5032131;28;20128;-75
2022/08/07 10:50:11;;;;;;;2.42;1.42;;;;;;;27.13;46.34;100516.78;5031664;28;20021;-75
2022/08/07 10:52:57;;;;;;;5.68;1.58;;;;;;;27.16;45.90;100510.78;5033969;28;20029;-75
2022/08/07 10:55:30;;;;;;;5.30;1.52;;;;;;;27.09;46.13;100488.03;5030812;28;20033;-75
2022/08/07 10:58:08;;;;;;;1.90;1.55;;;;;;;27.28;46.03;100508.09;5019730;28;20033;-75
2022/08/07 11:00:47;;;;;;;4.28;1.73;;;;;;;27.35;45.82;100515.16;5032447;28;20661;-76
2022/08/07 11:03:53;;;;;;;4.43;1.45;;;;;;;27.41;45.56;100503.19;5033236;28;20056;-74
2022/08/07 11:06:40;;;;;;;3.63;1.83;;;;;;;27.32;45.31;100484.47;5025438;28;20045;-75
2022/08/07 11:09:17;;;;;;;5.50;1.90;;;;;;;27.40;44.91;100484.13;5029378;28;20525;-75
2022/08/07 11:12:01;;;;;;;7.82;1.63;;;;;;;27.47;44.72;100485.66;5027028;28;20032;-74
2022/08/07 11:14:48;;;;;;;2.72;1.58;;;;;;;27.59;44.52;100493.94;5030026;28;20148;-76
2022/08/07 11:17:23;;;;;;;2.17;1.67;;;;;;;27.65;44.71;100488.31;5026021;28;20037;-75
2022/08/07 11:19:58;;;;;;;2.33;1.52;;;;;;;27.69;44.37;100489.50;5045149;28;20022;-75
2022/08/07 11:22:34;;;;;;;4.10;1.70;;;;;;;27.67;43.86;100461.34;5045520;28;20026;-74
2022/08/07 11:25:24;;;;;;;2.50;1.50;;;;;;;27.84;43.73;100465.03;5029616;28;20057;-75
2022/08/07 11:28:01;;;;;;;3.33;1.60;;;;;;;27.97;44.11;100473.06;5030457;28;20045;-75
2022/08/07 11:30:38;;;;;;;4.55;1.60;;;;;;;28.03;43.57;100471.25;5029183;28;20099;-75
2022/08/07 11:33:27;;;;;;;2.17;1.63;;;;;;;28.22;42.78;100472.75;5027879;28;20116;-75
2022/08/07 11:36:10;;;;;;;6.25;1.92;;;;;;;28.37;42.96;100468.34;5034399;28;20490;-75
2022/08/07 11:39:04;;;;;;;3.67;1.88;;;;;;;28.34;42.48;100444.00;5042975;28;20026;-75
2022/08/07 11:41:41;;;;;;;4.90;2.17;;;;;;;28.48;42.78;100455.63;5011308;28;20033;-75
2022/08/07 11:44:27;;;;;;;4.13;1.77;;;;;;;28.59;42.44;100451.94;5029850;28;20033;-75
2022/08/07 11:47:07;;;;;;;8.13;2.42;;;;;;;28.69;42.23;100446.59;5028754;28;20043;-76
2022/08/07 11:50:02;;;;;;;2.75;1.95;;;;;;;28.88;41.42;100450.00;5032409;28;20029;-80
2022/08/07 11:53:02;;;;;;;11.52;2.42;;;;;;;29.05;41.24;100439.81;5034025;28;20037;-80
2022/08/07 11:55:46;;;;;;;7.05;2.10;;;;;;;29.11;41.20;100438.81;5032880;28;20025;-80
2022/08/07 11:58:37;;;;;;;3.40;2.60;;;;;;;28.99;40.86;100413.16;5034902;28;20052;-80